sensor_id;sensor_type;location;lat;lon;timestamp;temperature;humidity
18268;DHT22;9260;49.998;19.880;2023-08-07T00:00:43;12.00;1.00
18268;DHT22;9260;49.998;19.880;2023-08-07T00:10:47;11.80;1.00
18268;DHT22;9260;49.998;19.880;2023-08-07T00:20:51;11.90;1.00
18268;DHT22;9260;49.998;19.880;2023-08-07T00:30:56;12.00;1.00
18268;DHT22;9260;49.998;19.880;2023-08-07T00:40:59;12.00;1.00
18268;DHT22;9260;49.998;19.880;2023-08-07T00:51:04;12.20;1.00
18268;DHT22;9260;49.998;19.880;2023-08-07T01:01:09;12.00;1.00
18268;DHT22;9260;49.998;19.880;2023-08-07T01:11:17;12.00;1.00
18268;DHT22;9260;49.998;19.880;2023-08-07T01:21:24;12.20;1.00
18268;DHT22;9260;49.998;19.880;2023-08-07T01:31:28;12.00;1.00
18268;DHT22;9260;49.998;19.880;2023-08-07T01:41:35;12.50;1.00
18268;DHT22;9260;49.998;19.880;2023-08-07T01:51:41;12.30;1.00
18268;DHT22;9260;49.998;19.880;2023-08-07T02:01:46;12.50;1.00
18268;DHT22;9260;49.998;19.880;2023-08-07T02:11:50;12.20;1.00
18268;DHT22;9260;49.998;19.880;2023-08-07T02:21:56;12.00;1.00
18268;DHT22;9260;49.998;19.880;2023-08-07T02:32:01;12.00;1.00
18268;DHT22;9260;49.998;19.880;2023-08-07T02:42:05;11.80;1.00
18268;DHT22;9260;49.998;19.880;2023-08-07T02:52:10;11.40;1.00
18268;DHT22;9260;49.998;19.880;2023-08-07T03:02:13;11.20;1.00
18268;DHT22;9260;49.998;19.880;2023-08-07T03:12:20;11.40;1.00
18268;DHT22;9260;49.998;19.880;2023-08-07T03:22:23;11.40;1.00
18268;DHT22;9260;49.998;19.880;2023-08-07T03:32:28;11.60;1.00
18268;DHT22;9260;49.998;19.880;2023-08-07T03:42:34;11.70;1.00
18268;DHT22;9260;49.998;19.880;2023-08-07T03:52:40;11.70;1.00
18268;DHT22;9260;49.998;19.880;2023-08-07T04:02:44;12.10;1.00
18268;DHT22;9260;49.998;19.880;2023-08-07T04:12:50;12.30;1.00
18268;DHT22;9260;49.998;19.880;2023-08-07T04:22:53;12.50;1.00
18268;DHT22;9260;49.998;19.880;2023-08-07T04:32:58;12.90;1.00
18268;DHT22;9260;49.998;19.880;2023-08-07T04:43:01;13.40;1.00
18268;DHT22;9260;49.998;19.880;2023-08-07T04:53:06;13.90;99.90
18268;DHT22;9260;49.998;19.880;2023-08-07T05:03:09;14.50;99.90
18268;DHT22;9260;49.998;19.880;2023-08-07T05:13:14;14.80;1.00
18268;DHT22;9260;49.998;19.880;2023-08-07T05:23:18;14.60;1.00
18268;DHT22;9260;49.998;19.880;2023-08-07T05:33:24;14.90;99.90
18268;DHT22;9260;49.998;19.880;2023-08-07T05:43:28;15.10;99.90
18268;DHT22;9260;49.998;19.880;2023-08-07T05:53:32;15.10;99.90
18268;DHT22;9260;49.998;19.880;2023-08-07T06:03:36;15.20;1.00
18268;DHT22;9260;49.998;19.880;2023-08-07T06:13:43;15.60;1.00
18268;DHT22;9260;49.998;19.880;2023-08-07T06:23:46;15.50;1.00
18268;DHT22;9260;49.998;19.880;2023-08-07T06:33:51;16.10;99.90
18268;DHT22;9260;49.998;19.880;2023-08-07T06:43:54;16.70;1.00
18268;DHT22;9260;49.998;19.880;2023-08-07T06:53:59;17.50;99.90
18268;DHT22;9260;49.998;19.880;2023-08-07T07:04:02;18.30;99.90
18268;DHT22;9260;49.998;19.880;2023-08-07T07:14:07;19.10;99.90
18268;DHT22;9260;49.998;19.880;2023-08-07T07:24:10;20.90;99.90
18268;DHT22;9260;49.998;19.880;2023-08-07T07:34:15;20.00;99.90
18268;DHT22;9260;49.998;19.880;2023-08-07T07:44:19;20.50;99.90
18268;DHT22;9260;49.998;19.880;2023-08-07T07:54:23;20.50;99.90
18268;DHT22;9260;49.998;19.880;2023-08-07T08:04:27;18.60;99.90
18268;DHT22;9260;49.998;19.880;2023-08-07T08:14:32;20.60;99.90
18268;DHT22;9260;49.998;19.880;2023-08-07T08:24:56;20.20;99.90
18268;DHT22;9260;49.998;19.880;2023-08-07T08:35:00;21.40;99.90
18268;DHT22;9260;49.998;19.880;2023-08-07T08:45:07;24.30;99.90
18268;DHT22;9260;49.998;19.880;2023-08-07T08:55:13;27.10;99.90
18268;DHT22;9260;49.998;19.880;2023-08-07T09:05:17;24.90;99.90
18268;DHT22;9260;49.998;19.880;2023-08-07T09:15:22;23.50;99.90
18268;DHT22;9260;49.998;19.880;2023-08-07T09:25:26;23.40;99.90
18268;DHT22;9260;49.998;19.880;2023-08-07T09:35:31;22.30;99.90
18268;DHT22;9260;49.998;19.880;2023-08-07T09:45:35;24.50;99.90
18268;DHT22;9260;49.998;19.880;2023-08-07T09:55:40;30.20;99.90
18268;DHT22;9260;49.998;19.880;2023-08-07T10:05:44;31.20;99.90
18268;DHT22;9260;49.998;19.880;2023-08-07T10:15:49;30.90;99.90
18268;DHT22;9260;49.998;19.880;2023-08-07T10:25:52;35.10;99.90
18268;DHT22;9260;49.998;19.880;2023-08-07T10:36:00;35.00;99.90
18268;DHT22;9260;49.998;19.880;2023-08-07T10:46:05;28.90;99.90
18268;DHT22;9260;49.998;19.880;2023-08-07T10:56:14;31.50;99.90
18268;DHT22;9260;49.998;19.880;2023-08-07T11:06:23;38.30;99.90
18268;DHT22;9260;49.998;19.880;2023-08-07T11:16:30;27.40;99.90
18268;DHT22;9260;49.998;19.880;2023-08-07T11:26:33;23.90;99.90
18268;DHT22;9260;49.998;19.880;2023-08-07T11:36:41;22.60;99.90
18268;DHT22;9260;49.998;19.880;2023-08-07T11:46:44;24.10;99.90
18268;DHT22;9260;49.998;19.880;2023-08-07T11:56:49;20.40;99.90
18268;DHT22;9260;49.998;19.880;2023-08-07T12:06:55;19.70;99.90
18268;DHT22;9260;49.998;19.880;2023-08-07T12:17:02;19.70;99.90
18268;DHT22;9260;49.998;19.880;2023-08-07T12:27:06;19.70;99.90
18268;DHT22;9260;49.998;19.880;2023-08-07T12:37:11;19.10;99.90
18268;DHT22;9260;49.998;19.880;2023-08-07T12:47:16;17.60;1.00
18268;DHT22;9260;49.998;19.880;2023-08-07T12:57:21;16.10;1.00
18268;DHT22;9260;49.998;19.880;2023-08-07T13:07:30;16.00;1.00
18268;DHT22;9260;49.998;19.880;2023-08-07T13:17:34;16.70;1.00
18268;DHT22;9260;49.998;19.880;2023-08-07T13:27:40;19.20;1.00
18268;DHT22;9260;49.998;19.880;2023-08-07T13:37:47;21.00;99.90
18268;DHT22;9260;49.998;19.880;2023-08-07T13:47:51;22.00;99.90
18268;DHT22;9260;49.998;19.880;2023-08-07T13:57:56;21.10;99.90
18268;DHT22;9260;49.998;19.880;2023-08-07T14:08:01;19.90;99.90
18268;DHT22;9260;49.998;19.880;2023-08-07T14:18:05;19.00;99.90
18268;DHT22;9260;49.998;19.880;2023-08-07T14:28:09;18.70;1.00
18268;DHT22;9260;49.998;19.880;2023-08-07T14:38:14;18.50;99.90
18268;DHT22;9260;49.998;19.880;2023-08-07T14:48:17;18.00;1.00
18268;DHT22;9260;49.998;19.880;2023-08-07T14:58:22;18.00;99.90
18268;DHT22;9260;49.998;19.880;2023-08-07T15:08:27;17.90;1.00
18268;DHT22;9260;49.998;19.880;2023-08-07T15:18:32;17.60;99.90
18268;DHT22;9260;49.998;19.880;2023-08-07T15:28:35;17.10;1.00
18268;DHT22;9260;49.998;19.880;2023-08-07T15:38:40;16.80;1.00
18268;DHT22;9260;49.998;19.880;2023-08-07T15:48:45;16.40;1.00
18268;DHT22;9260;49.998;19.880;2023-08-07T15:58:50;16.50;1.00
18268;DHT22;9260;49.998;19.880;2023-08-07T16:08:53;16.70;1.00
18268;DHT22;9260;49.998;19.880;2023-08-07T16:19:01;16.00;99.90
18268;DHT22;9260;49.998;19.880;2023-08-07T16:29:04;16.10;1.00
18268;DHT22;9260;49.998;19.880;2023-08-07T16:39:09;16.40;1.00
18268;DHT22;9260;49.998;19.880;2023-08-07T16:49:12;16.20;1.00
18268;DHT22;9260;49.998;19.880;2023-08-07T16:59:17;15.70;1.00
18268;DHT22;9260;49.998;19.880;2023-08-07T17:09:20;15.30;1.00
18268;DHT22;9260;49.998;19.880;2023-08-07T17:19:25;15.10;1.00
18268;DHT22;9260;49.998;19.880;2023-08-07T17:29:29;14.90;1.00
18268;DHT22;9260;49.998;19.880;2023-08-07T17:39:36;14.40;1.00
18268;DHT22;9260;49.998;19.880;2023-08-07T17:49:39;13.60;1.00
18268;DHT22;9260;49.998;19.880;2023-08-07T17:59:45;13.20;1.00
18268;DHT22;9260;49.998;19.880;2023-08-07T18:09:52;12.70;1.00
18268;DHT22;9260;49.998;19.880;2023-08-07T18:19:57;12.40;1.00
18268;DHT22;9260;49.998;19.880;2023-08-07T18:30:00;12.40;1.00
18268;DHT22;9260;49.998;19.880;2023-08-07T18:40:08;12.30;1.00
18268;DHT22;9260;49.998;19.880;2023-08-07T18:50:13;12.20;1.00
18268;DHT22;9260;49.998;19.880;2023-08-07T19:00:18;11.70;1.00
18268;DHT22;9260;49.998;19.880;2023-08-07T19:10:23;11.60;1.00
18268;DHT22;9260;49.998;19.880;2023-08-07T19:20:28;11.40;1.00
18268;DHT22;9260;49.998;19.880;2023-08-07T19:30:31;11.30;1.00
18268;DHT22;9260;49.998;19.880;2023-08-07T19:40:36;11.40;1.00
18268;DHT22;9260;49.998;19.880;2023-08-07T19:50:39;11.60;1.00
18268;DHT22;9260;49.998;19.880;2023-08-07T20:00:44;11.90;1.00
18268;DHT22;9260;49.998;19.880;2023-08-07T20:10:47;12.10;1.00
18268;DHT22;9260;49.998;19.880;2023-08-07T20:20:51;12.60;1.00
18268;DHT22;9260;49.998;19.880;2023-08-07T20:30:55;12.50;1.00
18268;DHT22;9260;49.998;19.880;2023-08-07T20:41:00;12.70;1.00
18268;DHT22;9260;49.998;19.880;2023-08-07T20:51:04;12.70;1.00
18268;DHT22;9260;49.998;19.880;2023-08-07T21:01:09;12.80;1.00
18268;DHT22;9260;49.998;19.880;2023-08-07T21:11:15;15.40;1.00
18268;DHT22;9260;49.998;19.880;2023-08-07T21:21:20;12.80;1.00
18268;DHT22;9260;49.998;19.880;2023-08-07T21:31:26;12.90;1.00
18268;DHT22;9260;49.998;19.880;2023-08-07T21:41:30;12.80;1.00
18268;DHT22;9260;49.998;19.880;2023-08-07T21:51:34;12.90;1.00
18268;DHT22;9260;49.998;19.880;2023-08-07T22:01:40;12.80;1.00
18268;DHT22;9260;49.998;19.880;2023-08-07T22:11:44;12.60;1.00
18268;DHT22;9260;49.998;19.880;2023-08-07T22:21:51;12.80;1.00
18268;DHT22;9260;49.998;19.880;2023-08-07T22:31:54;12.80;1.00
18268;DHT22;9260;49.998;19.880;2023-08-07T22:42:01;12.50;1.00
18268;DHT22;9260;49.998;19.880;2023-08-07T22:52:05;12.60;1.00
18268;DHT22;9260;49.998;19.880;2023-08-07T23:02:10;12.70;1.00
18268;DHT22;9260;49.998;19.880;2023-08-07T23:12:15;12.50;1.00
18268;DHT22;9260;49.998;19.880;2023-08-07T23:22:20;12.40;1.00
18268;DHT22;9260;49.998;19.880;2023-08-07T23:32:25;12.40;1.00
18268;DHT22;9260;49.998;19.880;2023-08-07T23:42:32;12.40;1.00
18268;DHT22;9260;49.998;19.880;2023-08-07T23:52:35;12.30;1.00
